sensor_id;sensor_type;location;lat;lon;timestamp;temperature;humidity
75500;DHT22;64076;51.466;7.260;2023-09-18T00:00:49;27.00;53.00
75500;DHT22;64076;51.466;7.260;2023-09-18T00:03:21;27.00;53.10
75500;DHT22;64076;51.466;7.260;2023-09-18T00:05:50;27.00;52.90
75500;DHT22;64076;51.466;7.260;2023-09-18T00:08:19;27.00;53.10
75500;DHT22;64076;51.466;7.260;2023-09-18T00:10:49;27.00;53.10
75500;DHT22;64076;51.466;7.260;2023-09-18T00:13:15;27.00;53.00
75500;DHT22;64076;51.466;7.260;2023-09-18T00:15:42;27.00;53.00
75500;DHT22;64076;51.466;7.260;2023-09-18T00:18:10;27.00;53.00
75500;DHT22;64076;51.466;7.260;2023-09-18T00:23:01;27.00;53.00
75500;DHT22;64076;51.466;7.260;2023-09-18T00:25:26;27.00;53.00
75500;DHT22;64076;51.466;7.260;2023-09-18T00:27:52;27.00;53.10
75500;DHT22;64076;51.466;7.260;2023-09-18T00:33:20;27.00;53.10
75500;DHT22;64076;51.466;7.260;2023-09-18T00:35:47;27.00;53.30
75500;DHT22;64076;51.466;7.260;2023-09-18T00:38:13;27.00;53.20
75500;DHT22;64076;51.466;7.260;2023-09-18T00:40:39;27.00;53.10
75500;DHT22;64076;51.466;7.260;2023-09-18T00:43:04;27.00;53.20
75500;DHT22;64076;51.466;7.260;2023-09-18T00:57:42;27.00;53.20
75500;DHT22;64076;51.466;7.260;2023-09-18T01:00:09;27.00;53.10
75500;DHT22;64076;51.466;7.260;2023-09-18T01:02:34;27.00;53.10
75500;DHT22;64076;51.466;7.260;2023-09-18T01:05:00;27.00;53.10
75500;DHT22;64076;51.466;7.260;2023-09-18T01:07:26;27.00;53.10
75500;DHT22;64076;51.466;7.260;2023-09-18T01:09:53;27.00;53.30
75500;DHT22;64076;51.466;7.260;2023-09-18T01:12:44;27.00;53.30
75500;DHT22;64076;51.466;7.260;2023-09-18T01:15:17;27.00;53.20
75500;DHT22;64076;51.466;7.260;2023-09-18T01:17:45;27.00;53.30
75500;DHT22;64076;51.466;7.260;2023-09-18T01:20:12;27.00;53.40
75500;DHT22;64076;51.466;7.260;2023-09-18T01:22:37;27.00;53.30
75500;DHT22;64076;51.466;7.260;2023-09-18T01:25:03;27.00;53.30
75500;DHT22;64076;51.466;7.260;2023-09-18T01:27:29;27.00;53.30
75500;DHT22;64076;51.466;7.260;2023-09-18T01:29:55;27.00;53.20
75500;DHT22;64076;51.466;7.260;2023-09-18T01:32:24;27.00;53.30
75500;DHT22;64076;51.466;7.260;2023-09-18T01:34:53;27.00;53.30
75500;DHT22;64076;51.466;7.260;2023-09-18T01:37:25;27.00;53.30
75500;DHT22;64076;51.466;7.260;2023-09-18T01:39:52;27.00;53.30
75500;DHT22;64076;51.466;7.260;2023-09-18T01:44:54;26.90;53.30
75500;DHT22;64076;51.466;7.260;2023-09-18T01:47:21;27.00;53.30
75500;DHT22;64076;51.466;7.260;2023-09-18T01:49:48;27.00;53.30
75500;DHT22;64076;51.466;7.260;2023-09-18T01:52:14;27.00;53.30
75500;DHT22;64076;51.466;7.260;2023-09-18T01:54:40;26.90;53.30
75500;DHT22;64076;51.466;7.260;2023-09-18T01:57:06;27.00;53.30
75500;DHT22;64076;51.466;7.260;2023-09-18T01:59:33;27.00;53.20
75500;DHT22;64076;51.466;7.260;2023-09-18T02:01:58;27.00;53.30
75500;DHT22;64076;51.466;7.260;2023-09-18T02:04:24;26.90;53.20
75500;DHT22;64076;51.466;7.260;2023-09-18T02:06:51;26.90;53.20
75500;DHT22;64076;51.466;7.260;2023-09-18T02:09:17;26.90;53.20
75500;DHT22;64076;51.466;7.260;2023-09-18T02:11:44;26.90;53.20
75500;DHT22;64076;51.466;7.260;2023-09-18T02:14:10;26.90;53.20
75500;DHT22;64076;51.466;7.260;2023-09-18T02:16:37;26.90;53.20
75500;DHT22;64076;51.466;7.260;2023-09-18T02:19:04;26.90;53.20
75500;DHT22;64076;51.466;7.260;2023-09-18T02:21:30;26.90;53.10
75500;DHT22;64076;51.466;7.260;2023-09-18T02:24:05;26.90;53.20
75500;DHT22;64076;51.466;7.260;2023-09-18T02:26:31;26.90;53.20
75500;DHT22;64076;51.466;7.260;2023-09-18T02:29:02;26.90;53.20
75500;DHT22;64076;51.466;7.260;2023-09-18T02:31:28;26.90;53.20
75500;DHT22;64076;51.466;7.260;2023-09-18T02:33:54;26.90;53.20
75500;DHT22;64076;51.466;7.260;2023-09-18T02:36:19;26.90;53.20
75500;DHT22;64076;51.466;7.260;2023-09-18T02:38:45;26.90;53.10
75500;DHT22;64076;51.466;7.260;2023-09-18T02:41:10;26.90;53.10
75500;DHT22;64076;51.466;7.260;2023-09-18T02:43:36;26.90;53.00
75500;DHT22;64076;51.466;7.260;2023-09-18T02:46:05;26.90;53.00
75500;DHT22;64076;51.466;7.260;2023-09-18T02:48:31;26.90;52.90
75500;DHT22;64076;51.466;7.260;2023-09-18T02:50:59;26.90;53.00
75500;DHT22;64076;51.466;7.260;2023-09-18T02:53:24;26.90;52.90
75500;DHT22;64076;51.466;7.260;2023-09-18T02:55:54;26.90;52.90
75500;DHT22;64076;51.466;7.260;2023-09-18T02:58:20;26.90;52.90
75500;DHT22;64076;51.466;7.260;2023-09-18T03:00:47;26.90;52.90
75500;DHT22;64076;51.466;7.260;2023-09-18T03:03:14;26.90;52.90
75500;DHT22;64076;51.466;7.260;2023-09-18T03:05:40;26.90;52.90
75500;DHT22;64076;51.466;7.260;2023-09-18T03:08:06;26.90;52.80
75500;DHT22;64076;51.466;7.260;2023-09-18T03:10:34;26.90;52.80
75500;DHT22;64076;51.466;7.260;2023-09-18T03:13:00;26.90;52.80
75500;DHT22;64076;51.466;7.260;2023-09-18T03:15:26;26.90;52.70
75500;DHT22;64076;51.466;7.260;2023-09-18T03:17:51;26.90;52.70
75500;DHT22;64076;51.466;7.260;2023-09-18T03:20:17;26.90;52.70
75500;DHT22;64076;51.466;7.260;2023-09-18T03:22:42;26.90;52.70
75500;DHT22;64076;51.466;7.260;2023-09-18T03:25:08;26.90;52.70
75500;DHT22;64076;51.466;7.260;2023-09-18T03:27:35;26.90;52.70
75500;DHT22;64076;51.466;7.260;2023-09-18T03:30:00;26.90;52.60
75500;DHT22;64076;51.466;7.260;2023-09-18T03:32:26;26.90;52.60
75500;DHT22;64076;51.466;7.260;2023-09-18T03:34:52;26.90;52.60
75500;DHT22;64076;51.466;7.260;2023-09-18T03:37:17;26.90;52.60
75500;DHT22;64076;51.466;7.260;2023-09-18T03:42:09;26.90;52.50
75500;DHT22;64076;51.466;7.260;2023-09-18T03:44:35;26.90;52.40
75500;DHT22;64076;51.466;7.260;2023-09-18T03:47:01;26.90;52.40
75500;DHT22;64076;51.466;7.260;2023-09-18T03:49:28;26.90;52.40
75500;DHT22;64076;51.466;7.260;2023-09-18T03:51:53;26.90;52.40
75500;DHT22;64076;51.466;7.260;2023-09-18T03:54:19;26.90;52.30
75500;DHT22;64076;51.466;7.260;2023-09-18T03:56:44;26.90;52.30
75500;DHT22;64076;51.466;7.260;2023-09-18T03:59:12;26.90;52.30
75500;DHT22;64076;51.466;7.260;2023-09-18T04:01:37;26.90;52.30
75500;DHT22;64076;51.466;7.260;2023-09-18T04:04:03;26.90;52.30
75500;DHT22;64076;51.466;7.260;2023-09-18T04:09:02;26.90;52.30
75500;DHT22;64076;51.466;7.260;2023-09-18T04:11:27;26.90;52.20
75500;DHT22;64076;51.466;7.260;2023-09-18T04:13:58;26.90;52.20
75500;DHT22;64076;51.466;7.260;2023-09-18T04:16:24;26.90;52.20
75500;DHT22;64076;51.466;7.260;2023-09-18T04:18:49;26.90;52.10
75500;DHT22;64076;51.466;7.260;2023-09-18T04:21:15;26.90;52.10
75500;DHT22;64076;51.466;7.260;2023-09-18T04:23:40;26.90;52.10
75500;DHT22;64076;51.466;7.260;2023-09-18T04:26:06;26.90;52.10
75500;DHT22;64076;51.466;7.260;2023-09-18T05:12:26;26.90;52.00
75500;DHT22;64076;51.466;7.260;2023-09-18T05:19:44;26.90;51.90
75500;DHT22;64076;51.466;7.260;2023-09-18T05:22:10;27.00;52.00
75500;DHT22;64076;51.466;7.260;2023-09-18T05:24:37;27.00;52.00
75500;DHT22;64076;51.466;7.260;2023-09-18T05:27:03;27.00;52.10
75500;DHT22;64076;51.466;7.260;2023-09-18T05:29:31;26.90;52.20
75500;DHT22;64076;51.466;7.260;2023-09-18T05:31:57;26.90;52.30
75500;DHT22;64076;51.466;7.260;2023-09-18T05:34:22;26.90;52.40
75500;DHT22;64076;51.466;7.260;2023-09-18T05:36:48;26.90;52.40
75500;DHT22;64076;51.466;7.260;2023-09-18T05:39:14;26.90;52.50
75500;DHT22;64076;51.466;7.260;2023-09-18T05:41:40;26.90;52.50
75500;DHT22;64076;51.466;7.260;2023-09-18T05:44:05;26.90;52.50
75500;DHT22;64076;51.466;7.260;2023-09-18T05:46:34;26.80;52.60
75500;DHT22;64076;51.466;7.260;2023-09-18T05:49:00;26.80;52.60
75500;DHT22;64076;51.466;7.260;2023-09-18T05:51:26;26.80;52.60
75500;DHT22;64076;51.466;7.260;2023-09-18T05:53:51;26.80;52.60
75500;DHT22;64076;51.466;7.260;2023-09-18T05:56:17;26.80;52.60
75500;DHT22;64076;51.466;7.260;2023-09-18T05:58:43;26.80;52.60
75500;DHT22;64076;51.466;7.260;2023-09-18T06:01:09;26.80;52.60
75500;DHT22;64076;51.466;7.260;2023-09-18T06:03:34;26.80;52.60
75500;DHT22;64076;51.466;7.260;2023-09-18T06:06:03;26.80;52.70
75500;DHT22;64076;51.466;7.260;2023-09-18T06:08:29;26.80;52.70
75500;DHT22;64076;51.466;7.260;2023-09-18T06:10:56;26.80;52.70
75500;DHT22;64076;51.466;7.260;2023-09-18T06:13:23;26.80;52.70
75500;DHT22;64076;51.466;7.260;2023-09-18T06:15:49;26.80;52.70
75500;DHT22;64076;51.466;7.260;2023-09-18T06:18:16;26.80;52.80
75500;DHT22;64076;51.466;7.260;2023-09-18T06:20:41;26.80;52.80
75500;DHT22;64076;51.466;7.260;2023-09-18T06:23:09;26.80;52.80
75500;DHT22;64076;51.466;7.260;2023-09-18T06:25:34;26.80;52.80
75500;DHT22;64076;51.466;7.260;2023-09-18T06:28:00;26.80;52.80
75500;DHT22;64076;51.466;7.260;2023-09-18T06:30:28;26.80;52.80
75500;DHT22;64076;51.466;7.260;2023-09-18T06:32:55;26.80;52.80
75500;DHT22;64076;51.466;7.260;2023-09-18T06:35:20;26.80;52.90
75500;DHT22;64076;51.466;7.260;2023-09-18T06:37:46;26.80;52.90
75500;DHT22;64076;51.466;7.260;2023-09-18T06:40:11;26.80;52.90
75500;DHT22;64076;51.466;7.260;2023-09-18T06:42:37;26.80;52.90
75500;DHT22;64076;51.466;7.260;2023-09-18T06:45:03;26.80;52.90
75500;DHT22;64076;51.466;7.260;2023-09-18T06:47:32;26.80;52.90
75500;DHT22;64076;51.466;7.260;2023-09-18T06:49:58;26.80;52.90
75500;DHT22;64076;51.466;7.260;2023-09-18T06:52:25;26.80;52.90
75500;DHT22;64076;51.466;7.260;2023-09-18T06:54:52;26.80;52.90
75500;DHT22;64076;51.466;7.260;2023-09-18T06:57:17;26.80;52.90
75500;DHT22;64076;51.466;7.260;2023-09-18T06:59:43;26.80;52.80
75500;DHT22;64076;51.466;7.260;2023-09-18T07:02:10;26.80;52.80
75500;DHT22;64076;51.466;7.260;2023-09-18T07:04:35;26.80;52.70
75500;DHT22;64076;51.466;7.260;2023-09-18T07:07:02;26.80;52.70
75500;DHT22;64076;51.466;7.260;2023-09-18T07:09:28;26.80;52.70
75500;DHT22;64076;51.466;7.260;2023-09-18T07:11:54;26.70;52.70
75500;DHT22;64076;51.466;7.260;2023-09-18T07:14:19;26.80;52.70
75500;DHT22;64076;51.466;7.260;2023-09-18T07:16:45;26.80;52.60
75500;DHT22;64076;51.466;7.260;2023-09-18T07:19:10;26.80;52.60
75500;DHT22;64076;51.466;7.260;2023-09-18T07:21:37;26.80;52.60
75500;DHT22;64076;51.466;7.260;2023-09-18T07:24:04;26.80;52.60
75500;DHT22;64076;51.466;7.260;2023-09-18T07:26:29;26.80;52.60
75500;DHT22;64076;51.466;7.260;2023-09-18T07:28:55;26.80;52.60
75500;DHT22;64076;51.466;7.260;2023-09-18T07:31:22;26.80;52.60
75500;DHT22;64076;51.466;7.260;2023-09-18T07:33:47;26.80;52.60
75500;DHT22;64076;51.466;7.260;2023-09-18T07:38:40;26.80;52.50
75500;DHT22;64076;51.466;7.260;2023-09-18T07:41:08;26.80;52.50
75500;DHT22;64076;51.466;7.260;2023-09-18T07:43:34;26.90;52.50
75500;DHT22;64076;51.466;7.260;2023-09-18T08:00:40;26.90;52.50
75500;DHT22;64076;51.466;7.260;2023-09-18T08:03:06;26.90;52.30
75500;DHT22;64076;51.466;7.260;2023-09-18T08:05:31;26.90;52.30
75500;DHT22;64076;51.466;7.260;2023-09-18T08:07:57;26.90;52.30
75500;DHT22;64076;51.466;7.260;2023-09-18T08:10:27;26.90;52.30
75500;DHT22;64076;51.466;7.260;2023-09-18T08:12:53;26.90;52.40
75500;DHT22;64076;51.466;7.260;2023-09-18T08:15:19;26.90;52.40
75500;DHT22;64076;51.466;7.260;2023-09-18T08:17:46;27.00;52.30
75500;DHT22;64076;51.466;7.260;2023-09-18T08:20:12;27.00;52.30
75500;DHT22;64076;51.466;7.260;2023-09-18T08:22:39;26.90;52.30
75500;DHT22;64076;51.466;7.260;2023-09-18T08:25:06;27.00;52.20
75500;DHT22;64076;51.466;7.260;2023-09-18T08:27:38;27.00;52.20
75500;DHT22;64076;51.466;7.260;2023-09-18T08:30:10;27.00;52.10
75500;DHT22;64076;51.466;7.260;2023-09-18T08:32:39;27.00;52.10
75500;DHT22;64076;51.466;7.260;2023-09-18T08:35:05;27.00;52.00
75500;DHT22;64076;51.466;7.260;2023-09-18T08:37:31;27.00;52.00
75500;DHT22;64076;51.466;7.260;2023-09-18T08:39:57;27.00;51.90
75500;DHT22;64076;51.466;7.260;2023-09-18T08:42:23;27.00;51.90
75500;DHT22;64076;51.466;7.260;2023-09-18T08:44:51;27.00;51.90
75500;DHT22;64076;51.466;7.260;2023-09-18T08:47:19;26.90;51.90
75500;DHT22;64076;51.466;7.260;2023-09-18T08:49:46;27.00;51.90
75500;DHT22;64076;51.466;7.260;2023-09-18T08:52:15;27.00;51.80
75500;DHT22;64076;51.466;7.260;2023-09-18T08:54:42;27.00;51.70
75500;DHT22;64076;51.466;7.260;2023-09-18T08:57:08;27.00;51.70
75500;DHT22;64076;51.466;7.260;2023-09-18T08:59:35;27.00;51.70
75500;DHT22;64076;51.466;7.260;2023-09-18T09:02:01;27.00;51.70
75500;DHT22;64076;51.466;7.260;2023-09-18T09:04:28;27.00;51.60
75500;DHT22;64076;51.466;7.260;2023-09-18T09:06:53;27.00;51.70
75500;DHT22;64076;51.466;7.260;2023-09-18T09:09:23;27.00;51.70
75500;DHT22;64076;51.466;7.260;2023-09-18T10:22:06;27.00;51.70
75500;DHT22;64076;51.466;7.260;2023-09-18T10:24:37;27.20;50.50
75500;DHT22;64076;51.466;7.260;2023-09-18T10:29:32;27.20;50.60
75500;DHT22;64076;51.466;7.260;2023-09-18T10:31:59;27.20;50.30
75500;DHT22;64076;51.466;7.260;2023-09-18T10:34:25;27.20;50.30
75500;DHT22;64076;51.466;7.260;2023-09-18T10:36:52;27.20;50.30
75500;DHT22;64076;51.466;7.260;2023-09-18T10:39:18;27.20;50.30
75500;DHT22;64076;51.466;7.260;2023-09-18T10:41:51;27.20;50.30
75500;DHT22;64076;51.466;7.260;2023-09-18T10:44:17;27.20;50.20
75500;DHT22;64076;51.466;7.260;2023-09-18T10:46:47;27.20;50.10
75500;DHT22;64076;51.466;7.260;2023-09-18T10:49:14;27.20;50.10
75500;DHT22;64076;51.466;7.260;2023-09-18T10:51:40;27.30;50.00
75500;DHT22;64076;51.466;7.260;2023-09-18T10:54:11;27.20;50.00
75500;DHT22;64076;51.466;7.260;2023-09-18T10:56:37;27.30;49.80
75500;DHT22;64076;51.466;7.260;2023-09-18T12:21:48;27.30;49.80
75500;DHT22;64076;51.466;7.260;2023-09-18T14:12:06;27.50;48.00
75500;DHT22;64076;51.466;7.260;2023-09-18T14:14:35;28.20;43.90
75500;DHT22;64076;51.466;7.260;2023-09-18T14:17:01;28.20;43.80
75500;DHT22;64076;51.466;7.260;2023-09-18T14:19:27;28.20;43.80
75500;DHT22;64076;51.466;7.260;2023-09-18T14:21:53;28.20;43.90
75500;DHT22;64076;51.466;7.260;2023-09-18T14:24:19;28.20;43.80
75500;DHT22;64076;51.466;7.260;2023-09-18T14:26:48;28.30;43.90
75500;DHT22;64076;51.466;7.260;2023-09-18T14:29:14;28.30;44.00
75500;DHT22;64076;51.466;7.260;2023-09-18T14:31:39;28.30;43.90
75500;DHT22;64076;51.466;7.260;2023-09-18T14:34:06;28.30;43.90
75500;DHT22;64076;51.466;7.260;2023-09-18T14:36:32;28.30;43.80
75500;DHT22;64076;51.466;7.260;2023-09-18T14:39:00;28.30;43.80
75500;DHT22;64076;51.466;7.260;2023-09-18T14:41:26;28.30;43.70
75500;DHT22;64076;51.466;7.260;2023-09-18T14:46:28;28.30;43.50
75500;DHT22;64076;51.466;7.260;2023-09-18T15:03:30;28.20;43.30
75500;DHT22;64076;51.466;7.260;2023-09-18T15:05:56;28.30;42.50
75500;DHT22;64076;51.466;7.260;2023-09-18T15:08:21;28.30;42.30
75500;DHT22;64076;51.466;7.260;2023-09-18T15:10:47;28.30;42.30
75500;DHT22;64076;51.466;7.260;2023-09-18T15:13:12;28.30;42.20
75500;DHT22;64076;51.466;7.260;2023-09-18T15:30:20;28.30;42.10
75500;DHT22;64076;51.466;7.260;2023-09-18T15:35:13;28.30;41.80
75500;DHT22;64076;51.466;7.260;2023-09-18T15:37:39;28.20;41.80
75500;DHT22;64076;51.466;7.260;2023-09-18T15:40:05;28.20;41.80
75500;DHT22;64076;51.466;7.260;2023-09-18T15:42:30;28.20;41.90
75500;DHT22;64076;51.466;7.260;2023-09-18T15:44:56;28.20;41.90
75500;DHT22;64076;51.466;7.260;2023-09-18T15:47:22;28.20;42.00
75500;DHT22;64076;51.466;7.260;2023-09-18T15:49:47;28.20;42.10
75500;DHT22;64076;51.466;7.260;2023-09-18T15:52:13;28.10;42.10
75500;DHT22;64076;51.466;7.260;2023-09-18T15:54:38;28.10;42.20
75500;DHT22;64076;51.466;7.260;2023-09-18T15:57:05;28.10;42.30
75500;DHT22;64076;51.466;7.260;2023-09-18T15:59:31;28.10;42.30
75500;DHT22;64076;51.466;7.260;2023-09-18T16:01:56;28.10;42.30
75500;DHT22;64076;51.466;7.260;2023-09-18T16:04:22;28.10;42.30
75500;DHT22;64076;51.466;7.260;2023-09-18T16:06:47;28.10;42.30
75500;DHT22;64076;51.466;7.260;2023-09-18T16:09:15;28.10;42.20
75500;DHT22;64076;51.466;7.260;2023-09-18T16:11:40;28.10;42.20
75500;DHT22;64076;51.466;7.260;2023-09-18T16:14:06;28.00;42.10
75500;DHT22;64076;51.466;7.260;2023-09-18T16:16:32;28.00;42.20
75500;DHT22;64076;51.466;7.260;2023-09-18T16:18:59;28.00;42.40
75500;DHT22;64076;51.466;7.260;2023-09-18T16:21:25;28.00;42.50
75500;DHT22;64076;51.466;7.260;2023-09-18T16:23:50;28.00;42.70
75500;DHT22;64076;51.466;7.260;2023-09-18T16:26:16;28.00;42.70
75500;DHT22;64076;51.466;7.260;2023-09-18T16:28:41;28.00;42.70
75500;DHT22;64076;51.466;7.260;2023-09-18T16:31:07;28.00;42.70
75500;DHT22;64076;51.466;7.260;2023-09-18T16:33:37;28.00;42.80
75500;DHT22;64076;51.466;7.260;2023-09-18T16:36:02;28.00;42.90
75500;DHT22;64076;51.466;7.260;2023-09-18T16:38:28;28.00;42.90
75500;DHT22;64076;51.466;7.260;2023-09-18T16:40:54;28.00;42.90
75500;DHT22;64076;51.466;7.260;2023-09-18T16:43:19;28.00;42.90
75500;DHT22;64076;51.466;7.260;2023-09-18T16:45:46;28.00;43.00
75500;DHT22;64076;51.466;7.260;2023-09-18T16:48:13;28.00;43.00
75500;DHT22;64076;51.466;7.260;2023-09-18T16:50:39;28.00;43.00
75500;DHT22;64076;51.466;7.260;2023-09-18T16:53:04;28.00;43.00
75500;DHT22;64076;51.466;7.260;2023-09-18T16:55:30;28.00;43.10
75500;DHT22;64076;51.466;7.260;2023-09-18T16:57:56;28.00;43.20
75500;DHT22;64076;51.466;7.260;2023-09-18T17:00:21;27.90;43.20
75500;DHT22;64076;51.466;7.260;2023-09-18T17:05:22;27.90;43.30
75500;DHT22;64076;51.466;7.260;2023-09-18T17:07:47;27.90;43.30
75500;DHT22;64076;51.466;7.260;2023-09-18T17:10:17;27.90;43.30
75500;DHT22;64076;51.466;7.260;2023-09-18T17:12:42;27.90;43.40
75500;DHT22;64076;51.466;7.260;2023-09-18T17:15:11;27.90;43.50
75500;DHT22;64076;51.466;7.260;2023-09-18T17:17:36;27.90;43.50
75500;DHT22;64076;51.466;7.260;2023-09-18T17:20:03;27.90;43.50
75500;DHT22;64076;51.466;7.260;2023-09-18T17:22:29;27.90;43.60
75500;DHT22;64076;51.466;7.260;2023-09-18T17:24:55;27.90;43.60
75500;DHT22;64076;51.466;7.260;2023-09-18T17:27:21;27.80;43.70
75500;DHT22;64076;51.466;7.260;2023-09-18T17:29:46;27.80;43.70
75500;DHT22;64076;51.466;7.260;2023-09-18T17:32:12;27.90;43.70
75500;DHT22;64076;51.466;7.260;2023-09-18T17:34:37;27.80;43.80
75500;DHT22;64076;51.466;7.260;2023-09-18T17:37:05;27.80;43.80
75500;DHT22;64076;51.466;7.260;2023-09-18T17:39:31;27.80;43.80
75500;DHT22;64076;51.466;7.260;2023-09-18T17:41:57;27.80;43.80
75500;DHT22;64076;51.466;7.260;2023-09-18T17:44:22;27.80;43.90
75500;DHT22;64076;51.466;7.260;2023-09-18T17:46:48;27.80;43.90
75500;DHT22;64076;51.466;7.260;2023-09-18T17:49:14;27.80;44.00
75500;DHT22;64076;51.466;7.260;2023-09-18T17:51:40;27.80;44.00
75500;DHT22;64076;51.466;7.260;2023-09-18T17:54:06;27.70;44.10
75500;DHT22;64076;51.466;7.260;2023-09-18T17:56:33;27.70;44.10
75500;DHT22;64076;51.466;7.260;2023-09-18T17:58:58;27.70;44.10
75500;DHT22;64076;51.466;7.260;2023-09-18T18:01:24;27.70;44.20
75500;DHT22;64076;51.466;7.260;2023-09-18T18:03:49;27.70;44.20
75500;DHT22;64076;51.466;7.260;2023-09-18T18:06:16;27.70;44.20
75500;DHT22;64076;51.466;7.260;2023-09-18T18:08:42;27.70;44.30
75500;DHT22;64076;51.466;7.260;2023-09-18T18:11:09;27.70;44.20
75500;DHT22;64076;51.466;7.260;2023-09-18T18:13:36;27.70;44.30
75500;DHT22;64076;51.466;7.260;2023-09-18T18:16:02;27.70;44.30
75500;DHT22;64076;51.466;7.260;2023-09-18T18:18:30;27.70;44.30
75500;DHT22;64076;51.466;7.260;2023-09-18T18:20:56;27.70;44.30
75500;DHT22;64076;51.466;7.260;2023-09-18T18:23:21;27.70;44.40
75500;DHT22;64076;51.466;7.260;2023-09-18T18:25:50;27.70;44.40
75500;DHT22;64076;51.466;7.260;2023-09-18T18:28:17;27.70;44.40
75500;DHT22;64076;51.466;7.260;2023-09-18T18:30:43;27.70;44.40
75500;DHT22;64076;51.466;7.260;2023-09-18T18:33:09;27.70;44.40
75500;DHT22;64076;51.466;7.260;2023-09-18T18:35:34;27.60;44.40
75500;DHT22;64076;51.466;7.260;2023-09-18T18:38:03;27.60;44.50
75500;DHT22;64076;51.466;7.260;2023-09-18T18:40:30;27.60;44.50
75500;DHT22;64076;51.466;7.260;2023-09-18T18:42:56;27.60;44.60
75500;DHT22;64076;51.466;7.260;2023-09-18T18:45:22;27.60;44.60
75500;DHT22;64076;51.466;7.260;2023-09-18T18:47:48;27.60;44.60
75500;DHT22;64076;51.466;7.260;2023-09-18T18:50:18;27.60;44.60
75500;DHT22;64076;51.466;7.260;2023-09-18T18:52:43;27.60;44.70
75500;DHT22;64076;51.466;7.260;2023-09-18T18:55:09;27.60;44.80
75500;DHT22;64076;51.466;7.260;2023-09-18T18:57:35;27.60;44.80
75500;DHT22;64076;51.466;7.260;2023-09-18T19:00:04;27.60;44.80
75500;DHT22;64076;51.466;7.260;2023-09-18T19:02:36;27.60;44.80
75500;DHT22;64076;51.466;7.260;2023-09-18T19:05:03;27.50;44.80
75500;DHT22;64076;51.466;7.260;2023-09-18T19:07:29;27.60;44.80
75500;DHT22;64076;51.466;7.260;2023-09-18T19:09:55;27.60;44.90
75500;DHT22;64076;51.466;7.260;2023-09-18T19:12:22;27.50;44.90
75500;DHT22;64076;51.466;7.260;2023-09-18T19:14:51;27.50;44.90
75500;DHT22;64076;51.466;7.260;2023-09-18T19:17:18;27.50;45.00
75500;DHT22;64076;51.466;7.260;2023-09-18T19:19:43;27.50;45.00
75500;DHT22;64076;51.466;7.260;2023-09-18T19:22:09;27.50;45.10
75500;DHT22;64076;51.466;7.260;2023-09-18T19:24:34;27.50;45.10
75500;DHT22;64076;51.466;7.260;2023-09-18T19:27:00;27.50;45.10
75500;DHT22;64076;51.466;7.260;2023-09-18T19:29:29;27.50;45.10
75500;DHT22;64076;51.466;7.260;2023-09-18T19:31:58;27.50;45.20
75500;DHT22;64076;51.466;7.260;2023-09-18T19:34:23;27.50;45.20
75500;DHT22;64076;51.466;7.260;2023-09-18T19:36:49;27.40;45.30
75500;DHT22;64076;51.466;7.260;2023-09-18T19:39:19;27.50;45.30
75500;DHT22;64076;51.466;7.260;2023-09-18T19:41:45;27.50;45.30
75500;DHT22;64076;51.466;7.260;2023-09-18T19:44:11;27.40;45.30
75500;DHT22;64076;51.466;7.260;2023-09-18T19:47:14;27.40;45.40
75500;DHT22;64076;51.466;7.260;2023-09-18T19:49:39;27.40;45.40
75500;DHT22;64076;51.466;7.260;2023-09-18T19:52:05;27.40;45.50
75500;DHT22;64076;51.466;7.260;2023-09-18T19:54:33;27.40;45.50
75500;DHT22;64076;51.466;7.260;2023-09-18T19:56:58;27.40;45.50
75500;DHT22;64076;51.466;7.260;2023-09-18T19:59:25;27.40;45.60
75500;DHT22;64076;51.466;7.260;2023-09-18T20:01:50;27.40;45.60
75500;DHT22;64076;51.466;7.260;2023-09-18T20:04:16;27.40;45.60
75500;DHT22;64076;51.466;7.260;2023-09-18T20:06:41;27.40;45.60
75500;DHT22;64076;51.466;7.260;2023-09-18T20:09:07;27.40;45.60
75500;DHT22;64076;51.466;7.260;2023-09-18T20:11:38;27.40;45.60
75500;DHT22;64076;51.466;7.260;2023-09-18T20:14:03;27.40;45.70
75500;DHT22;64076;51.466;7.260;2023-09-18T20:16:29;27.40;45.70
75500;DHT22;64076;51.466;7.260;2023-09-18T20:18:54;27.40;45.70
75500;DHT22;64076;51.466;7.260;2023-09-18T20:21:23;27.40;45.70
75500;DHT22;64076;51.466;7.260;2023-09-18T20:23:49;27.30;45.80
75500;DHT22;64076;51.466;7.260;2023-09-18T20:26:14;27.40;45.80
75500;DHT22;64076;51.466;7.260;2023-09-18T20:28:40;27.30;45.80
75500;DHT22;64076;51.466;7.260;2023-09-18T20:31:06;27.30;45.80
75500;DHT22;64076;51.466;7.260;2023-09-18T20:33:31;27.30;45.90
75500;DHT22;64076;51.466;7.260;2023-09-18T20:35:58;27.30;45.90
75500;DHT22;64076;51.466;7.260;2023-09-18T20:38:24;27.30;45.90
75500;DHT22;64076;51.466;7.260;2023-09-18T20:40:49;27.30;45.90
75500;DHT22;64076;51.466;7.260;2023-09-18T20:43:15;27.30;45.90
75500;DHT22;64076;51.466;7.260;2023-09-18T20:45:41;27.30;46.00
75500;DHT22;64076;51.466;7.260;2023-09-18T20:48:07;27.30;46.00
75500;DHT22;64076;51.466;7.260;2023-09-18T20:50:33;27.30;46.00
75500;DHT22;64076;51.466;7.260;2023-09-18T20:52:59;27.30;46.00
75500;DHT22;64076;51.466;7.260;2023-09-18T20:55:25;27.30;46.10
75500;DHT22;64076;51.466;7.260;2023-09-18T20:57:50;27.30;46.10
75500;DHT22;64076;51.466;7.260;2023-09-18T21:00:16;27.30;46.10
75500;DHT22;64076;51.466;7.260;2023-09-18T21:02:42;27.30;46.10
75500;DHT22;64076;51.466;7.260;2023-09-18T21:05:11;27.30;46.20
75500;DHT22;64076;51.466;7.260;2023-09-18T21:07:37;27.30;46.20
75500;DHT22;64076;51.466;7.260;2023-09-18T21:10:06;27.30;46.20
75500;DHT22;64076;51.466;7.260;2023-09-18T21:12:32;27.30;46.20
75500;DHT22;64076;51.466;7.260;2023-09-18T21:14:58;27.30;46.20
75500;DHT22;64076;51.466;7.260;2023-09-18T21:17:26;27.30;46.20
75500;DHT22;64076;51.466;7.260;2023-09-18T21:19:51;27.30;46.30
75500;DHT22;64076;51.466;7.260;2023-09-18T21:22:17;27.30;46.30
75500;DHT22;64076;51.466;7.260;2023-09-18T21:24:42;27.30;46.30
75500;DHT22;64076;51.466;7.260;2023-09-18T21:27:10;27.30;46.30
75500;DHT22;64076;51.466;7.260;2023-09-18T21:29:35;27.30;46.30
75500;DHT22;64076;51.466;7.260;2023-09-18T21:32:01;27.30;46.40
75500;DHT22;64076;51.466;7.260;2023-09-18T21:34:26;27.30;46.30
75500;DHT22;64076;51.466;7.260;2023-09-18T21:36:52;27.20;46.40
75500;DHT22;64076;51.466;7.260;2023-09-18T21:39:18;27.30;46.40
75500;DHT22;64076;51.466;7.260;2023-09-18T21:41:45;27.30;46.40
75500;DHT22;64076;51.466;7.260;2023-09-18T21:44:14;27.20;46.40
75500;DHT22;64076;51.466;7.260;2023-09-18T21:46:41;27.20;46.40
75500;DHT22;64076;51.466;7.260;2023-09-18T21:49:12;27.20;46.40
75500;DHT22;64076;51.466;7.260;2023-09-18T21:51:38;27.20;46.50
75500;DHT22;64076;51.466;7.260;2023-09-18T21:54:07;27.20;46.50
75500;DHT22;64076;51.466;7.260;2023-09-18T21:56:32;27.20;46.50